Terminal Aerodrome Forecast
Issued by NWS

Home | Current Version | Previous Version | Text Only | Print | Product List | Glossary On
Versions: 1 2 3 4 5 6 7 8 9 10 11 12 13 14 15 16 17
751
FTUS43 KGRR 251140
TAFLAN
TAF
KLAN 251140Z 2512/2612 21006KT P6SM FEW250
     FM251600 24010KT P6SM FEW250
     FM260100 22005KT P6SM SCT200
     FM261000 22006KT P6SM VCSH BKN100=

USA.gov is the U.S. government's official web portal to all federal, state and local government web resources and services.